createdAt,value
2022-08-23T00:03:14.833Z,0
2022-08-23T00:08:15.056Z,0
2022-08-23T00:13:15.173Z,0
2022-08-23T00:18:15.339Z,0
2022-08-23T00:23:15.509Z,0
2022-08-23T00:28:15.180Z,0
2022-08-23T00:33:15.338Z,0
2022-08-23T00:38:35.332Z,0
2022-08-23T00:43:15.465Z,0
2022-08-23T00:48:15.512Z,0
2022-08-23T00:53:14.808Z,0
2022-08-23T00:58:14.880Z,0
2022-08-23T01:03:15.868Z,0
2022-08-23T01:08:15.354Z,0
2022-08-23T01:13:14.779Z,0
2022-08-23T01:18:15.028Z,0
2022-08-23T01:23:15.456Z,0
2022-08-23T01:28:15.646Z,0
2022-08-23T01:33:14.788Z,0
2022-08-23T01:38:15.072Z,0
2022-08-23T01:43:15.292Z,0
2022-08-23T01:48:15.479Z,0
2022-08-23T01:53:15.644Z,0
2022-08-23T01:58:14.827Z,0
2022-08-23T02:03:15.701Z,0
2022-08-23T02:08:14.792Z,0
2022-08-23T02:13:15.036Z,0
2022-08-23T02:18:16.372Z,0
2022-08-23T02:23:14.960Z,0
2022-08-23T02:28:15.018Z,0
2022-08-23T02:33:16.865Z,0
2022-08-23T02:38:15.018Z,0
2022-08-23T02:43:14.639Z,0
2022-08-23T02:48:14.880Z,0
2022-08-23T02:53:15.861Z,0
2022-08-23T02:58:15.063Z,0
2022-08-23T03:03:15.362Z,0
2022-08-23T03:08:14.867Z,0
2022-08-23T03:13:15.187Z,0
2022-08-23T03:18:15.696Z,0
2022-08-23T03:23:15.014Z,0
2022-08-23T03:28:15.759Z,0
2022-08-23T03:33:15.274Z,0
2022-08-23T03:38:15.151Z,0
2022-08-23T03:43:15.229Z,0
2022-08-23T03:48:15.639Z,0
2022-08-23T03:53:15.810Z,0
2022-08-23T03:58:15.071Z,0
2022-08-23T04:03:15.491Z,0
2022-08-23T04:08:21.089Z,0
2022-08-23T04:13:15.082Z,0
2022-08-23T04:18:15.359Z,0
2022-08-23T04:23:15.702Z,0
2022-08-23T04:28:14.890Z,0
2022-08-23T04:33:18.430Z,0
2022-08-23T04:38:25.475Z,9.7
2022-08-23T04:43:15.588Z,9.7
2022-08-23T04:48:14.927Z,12
2022-08-23T04:53:14.970Z,12
2022-08-23T04:58:15.076Z,12.8
2022-08-23T05:03:15.567Z,12.8
2022-08-23T05:08:14.959Z,19.5
2022-08-23T05:13:15.718Z,19.5
2022-08-23T05:18:14.853Z,39.8
2022-08-23T05:23:15.200Z,39.8
2022-08-23T05:28:15.347Z,48.2
2022-08-23T05:33:15.636Z,48.2
2022-08-23T05:38:21.021Z,61.2
2022-08-23T05:43:15.280Z,61.2
2022-08-23T05:48:18.499Z,63.2
2022-08-23T05:53:15.724Z,63.2
2022-08-23T05:58:14.888Z,90.6
2022-08-23T06:03:15.315Z,90.6
2022-08-23T06:08:15.595Z,100.8
2022-08-23T06:13:15.825Z,100.8
2022-08-23T06:18:15.031Z,108.6
2022-08-23T06:23:15.346Z,108.6
2022-08-23T06:28:15.455Z,127.2
2022-08-23T06:33:15.607Z,127.2
2022-08-23T06:38:15.661Z,157.6
2022-08-23T06:43:15.757Z,157.6
2022-08-23T06:48:19.087Z,270.8
2022-08-23T06:53:17.140Z,270.8
2022-08-23T06:58:15.228Z,276.7
2022-08-23T07:03:15.492Z,276.7
2022-08-23T07:08:15.784Z,298.2
2022-08-23T07:13:18.879Z,298.2
2022-08-23T07:18:15.366Z,350.2
2022-08-23T07:23:14.991Z,350.2
2022-08-23T07:28:15.387Z,376
2022-08-23T07:33:15.557Z,376
2022-08-23T07:38:15.663Z,392.5
2022-08-23T07:43:14.981Z,392.5
2022-08-23T07:48:43.560Z,411.4
2022-08-23T07:53:38.182Z,411.4
2022-08-23T07:58:15.332Z,431.5
2022-08-23T08:03:15.698Z,431.5
2022-08-23T08:08:15.941Z,453
2022-08-23T08:13:15.160Z,453
2022-08-23T08:18:15.350Z,473.8
2022-08-23T08:23:15.777Z,473.8
2022-08-23T08:28:16.372Z,493.6
2022-08-23T08:33:16.741Z,493.6
2022-08-23T08:38:15.055Z,513.7
2022-08-23T08:43:15.295Z,513.7
2022-08-23T08:48:15.547Z,531.5
2022-08-23T08:53:15.798Z,531.5
2022-08-23T08:58:15.822Z,548.4
2022-08-23T09:03:15.786Z,548.4
2022-08-23T09:08:15.406Z,564.3
2022-08-23T09:13:19.573Z,564.3
2022-08-23T09:18:15.292Z,578.8
2022-08-23T09:23:15.099Z,578.8
2022-08-23T09:28:15.543Z,595.2
2022-08-23T09:33:15.182Z,595.2
2022-08-23T09:38:15.413Z,607.6
2022-08-23T09:43:15.682Z,607.6
2022-08-23T09:48:15.334Z,617.7
2022-08-23T09:53:15.781Z,617.7
2022-08-23T09:58:15.982Z,631
2022-08-23T10:03:15.605Z,631
2022-08-23T10:08:15.718Z,638.4
2022-08-23T10:13:14.938Z,638.4
2022-08-23T10:18:15.083Z,651.2
2022-08-23T10:23:15.445Z,651.2
2022-08-23T10:28:15.792Z,659
2022-08-23T10:33:18.951Z,659
2022-08-23T10:38:15.256Z,665.8
2022-08-23T10:43:15.392Z,665.8
2022-08-23T10:48:15.708Z,670.2
2022-08-23T10:53:15.808Z,670.2
2022-08-23T10:58:15.038Z,675.7
2022-08-23T11:03:15.190Z,675.7
2022-08-23T11:08:15.584Z,679.4
2022-08-23T11:13:15.924Z,679.4
2022-08-23T11:18:15.129Z,680.8
2022-08-23T11:23:15.303Z,680.8
2022-08-23T11:28:15.432Z,683
2022-08-23T11:33:15.584Z,683
2022-08-23T11:38:22.795Z,682.7
2022-08-23T11:43:16.129Z,682.7
2022-08-23T11:48:15.233Z,679.2
2022-08-23T11:53:17.040Z,679.2
2022-08-23T11:58:15.488Z,677.5
2022-08-23T12:03:16.472Z,677.5
2022-08-23T12:08:15.276Z,675.3
2022-08-23T12:13:15.423Z,675.3
2022-08-23T12:18:25.059Z,668.4
2022-08-23T12:23:15.314Z,668.4
2022-08-23T12:28:15.507Z,659.4
2022-08-23T12:33:15.525Z,659.4
2022-08-23T12:38:15.732Z,649.8
2022-08-23T12:43:23.128Z,649.8
2022-08-23T12:48:15.316Z,308.4
2022-08-23T12:53:15.979Z,308.4
2022-08-23T12:58:15.393Z,427
2022-08-23T13:03:15.957Z,427
2022-08-23T13:08:15.239Z,490.7
2022-08-23T13:13:15.650Z,490.7
2022-08-23T13:18:15.318Z,603
2022-08-23T13:23:15.469Z,603
2022-08-23T13:28:15.621Z,598
2022-08-23T13:33:15.350Z,598
2022-08-23T13:38:22.019Z,585
2022-08-23T13:43:15.415Z,585
2022-08-23T13:48:15.621Z,564
2022-08-23T13:53:16.125Z,564
2022-08-23T13:58:15.416Z,546.8
2022-08-23T14:03:15.206Z,546.8
2022-08-23T14:08:15.354Z,527.6
2022-08-23T14:13:15.527Z,527.6
2022-08-23T14:18:15.775Z,494.7
2022-08-23T14:23:16.033Z,494.7
2022-08-23T14:28:16.092Z,490
2022-08-23T14:33:15.227Z,490
2022-08-23T14:38:15.891Z,469.4
2022-08-23T14:43:15.302Z,469.4
2022-08-23T14:48:15.644Z,454.6
2022-08-23T14:53:15.339Z,454.6
2022-08-23T14:58:15.512Z,432.5
2022-08-23T15:03:16.066Z,432.5
2022-08-23T15:08:15.508Z,407.6
2022-08-23T15:13:33.901Z,407.6
2022-08-23T15:18:15.331Z,388
2022-08-23T15:23:15.632Z,388
2022-08-23T15:28:16.161Z,367.2
2022-08-23T15:33:15.366Z,367.2
2022-08-23T15:38:15.801Z,334.3
2022-08-23T15:43:16.133Z,334.3
2022-08-23T15:48:15.638Z,301.4
2022-08-23T15:53:15.955Z,301.4
2022-08-23T15:58:16.146Z,298.7
2022-08-23T16:03:21.294Z,298.7
2022-08-23T16:08:15.592Z,274.5
2022-08-23T16:13:16.146Z,274.5
2022-08-23T16:18:15.271Z,251.4
2022-08-23T16:23:15.456Z,251.4
2022-08-23T16:28:15.541Z,224
2022-08-23T16:33:16.233Z,224
2022-08-23T16:38:15.343Z,196.5
2022-08-23T16:43:16.108Z,196.5
2022-08-23T16:48:15.295Z,172
2022-08-23T16:53:15.638Z,172
2022-08-23T16:58:16.206Z,144.4
2022-08-23T17:03:15.881Z,144.4
2022-08-23T17:08:15.455Z,36.3
2022-08-23T17:13:15.260Z,36.3
2022-08-23T17:18:15.463Z,33
2022-08-23T17:23:15.492Z,33
2022-08-23T17:28:15.971Z,30.7
2022-08-23T17:33:16.430Z,30.7
2022-08-23T17:38:15.475Z,25.5
2022-08-23T17:43:15.910Z,25.5
2022-08-23T17:48:16.074Z,19.4
2022-08-23T17:53:16.163Z,19.4
2022-08-23T17:58:16.655Z,17.2
2022-08-23T18:03:15.702Z,17.2
2022-08-23T18:08:15.982Z,11.8
2022-08-23T18:13:16.106Z,11.8
2022-08-23T18:18:15.501Z,7.7
2022-08-23T18:23:16.151Z,7.7
2022-08-23T18:28:15.504Z,4
2022-08-23T18:33:15.576Z,4
2022-08-23T18:38:16.235Z,0
2022-08-23T18:43:16.245Z,0
2022-08-23T18:48:15.995Z,0
2022-08-23T18:53:16.221Z,0
2022-08-23T18:58:16.015Z,0
2022-08-23T19:03:17.216Z,0
2022-08-23T19:08:15.694Z,0
2022-08-23T19:13:15.968Z,0
2022-08-23T19:18:15.971Z,0
2022-08-23T19:23:15.319Z,0
2022-08-23T19:28:15.408Z,0
2022-08-23T19:33:15.946Z,0
2022-08-23T19:38:15.954Z,0
2022-08-23T19:43:16.254Z,0
2022-08-23T19:48:16.325Z,0
2022-08-23T19:53:15.456Z,0
2022-08-23T19:58:15.654Z,0
2022-08-23T20:03:15.805Z,0
2022-08-23T20:08:16.122Z,0
2022-08-23T20:13:16.352Z,0
2022-08-23T20:18:15.699Z,0
2022-08-23T20:23:15.797Z,0
2022-08-23T20:28:15.868Z,0
2022-08-23T20:33:16.217Z,0
2022-08-23T20:38:34.254Z,0
2022-08-23T20:43:17.861Z,0
2022-08-23T20:48:15.975Z,0
2022-08-23T20:53:15.576Z,0
2022-08-23T20:58:16.145Z,0
2022-08-23T21:03:16.253Z,0
2022-08-23T21:08:16.000Z,0
2022-08-23T21:13:16.377Z,0
2022-08-23T21:18:15.368Z,0
2022-08-23T21:23:16.006Z,0
2022-08-23T21:28:16.069Z,0
2022-08-23T21:33:15.468Z,0
2022-08-23T21:38:16.362Z,0
2022-08-23T21:43:16.311Z,0
2022-08-23T21:48:15.550Z,0
2022-08-23T21:53:16.004Z,0
2022-08-23T21:58:16.256Z,0
2022-08-23T22:03:16.044Z,0
2022-08-23T22:08:17.220Z,0
2022-08-23T22:13:16.764Z,0
2022-08-23T22:18:16.084Z,0
2022-08-23T22:23:16.394Z,0
2022-08-23T22:28:15.569Z,0
2022-08-23T22:33:17.533Z,0
2022-08-23T22:38:16.774Z,0
2022-08-23T22:43:15.920Z,0
2022-08-23T22:48:16.167Z,0
2022-08-23T22:58:16.466Z,0
2022-08-23T23:03:16.471Z,0
2022-08-23T23:08:15.781Z,0
2022-08-23T23:13:16.011Z,0
2022-08-23T23:18:16.174Z,0
2022-08-23T23:23:15.475Z,0
2022-08-23T23:28:15.892Z,0
2022-08-23T23:33:15.981Z,0
2022-08-23T23:38:15.918Z,0
2022-08-23T23:43:16.084Z,0
2022-08-23T23:48:16.306Z,0
2022-08-23T23:53:16.472Z,0
2022-08-23T23:58:15.629Z,0
